Time;durP1;ratioP1;P1;durP2;ratioP2;P2;SDS_P1;SDS_P2;PMS_P1;PMS_P2;Temp;Humidity;BMP_temperature;BMP_pressure;BME280_temperature;BME280_humidity;BME280_pressure;Samples;Min_cycle;Max_cycle;Signal;HPM_P1;HPM_P2
2023/10/29 00:00:36;;;;;;;7.22;4.25;;;;;;;9.89;100.00;99264.47;4924110;29;20042;-78
2023/10/29 00:03:06;;;;;;;5.60;3.78;;;;;;;9.89;100.00;99261.81;4933708;29;20051;-78
2023/10/29 00:05:34;;;;;;;7.57;4.00;;;;;;;9.88;100.00;99260.94;4918516;29;20349;-78
2023/10/29 00:08:01;;;;;;;7.20;3.78;;;;;;;9.89;100.00;99249.53;4933145;29;20059;-78
2023/10/29 00:10:29;;;;;;;6.15;3.75;;;;;;;9.91;100.00;99265.28;4893436;29;20055;-78
2023/10/29 00:12:56;;;;;;;4.90;3.72;;;;;;;9.92;100.00;99264.38;4934684;29;20050;-78
2023/10/29 00:15:24;;;;;;;5.60;3.67;;;;;;;9.93;100.00;99260.88;4924291;28;20062;-78
2023/10/29 00:17:51;;;;;;;8.70;4.03;;;;;;;9.94;100.00;99252.06;4919423;29;20054;-78
2023/10/29 00:20:19;;;;;;;5.50;3.50;;;;;;;9.94;100.00;99245.06;4928430;29;20059;-78
2023/10/29 00:22:46;;;;;;;5.25;3.90;;;;;;;9.95;100.00;99256.44;4918964;29;20047;-78
2023/10/29 00:25:14;;;;;;;4.30;3.88;;;;;;;9.97;100.00;99243.25;4948461;29;20058;-79
2023/10/29 00:27:41;;;;;;;5.75;3.95;;;;;;;9.98;100.00;99239.72;4889769;29;20533;-77
2023/10/29 00:30:09;;;;;;;5.95;3.65;;;;;;;9.99;100.00;99223.91;4914913;29;20059;-77
2023/10/29 00:32:36;;;;;;;5.65;4.22;;;;;;;9.99;100.00;99218.63;4908373;29;20040;-77
2023/10/29 00:35:05;;;;;;;6.75;3.80;;;;;;;10.02;100.00;99229.09;4915040;29;20067;-78
2023/10/29 00:37:34;;;;;;;5.38;3.83;;;;;;;10.03;100.00;99217.66;4916202;29;20056;-78
2023/10/29 00:40:02;;;;;;;7.60;3.78;;;;;;;10.03;100.00;99217.66;4911874;29;20055;-77
2023/10/29 00:42:29;;;;;;;6.20;3.42;;;;;;;10.05;100.00;99209.75;4870736;29;20043;-77
2023/10/29 00:44:57;;;;;;;8.00;3.58;;;;;;;10.04;100.00;99193.09;4916575;29;20047;-77
2023/10/29 00:47:24;;;;;;;5.75;3.85;;;;;;;10.07;100.00;99186.88;4938572;28;20517;-77
2023/10/29 00:49:52;;;;;;;4.25;3.45;;;;;;;10.07;100.00;99187.75;4950950;29;20058;-78
2023/10/29 00:52:21;;;;;;;8.35;3.67;;;;;;;10.08;100.00;99188.63;4930418;29;20567;-78
2023/10/29 00:54:48;;;;;;;5.93;4.10;;;;;;;10.08;100.00;99189.50;4917003;29;20047;-79
2023/10/29 00:57:16;;;;;;;4.15;3.70;;;;;;;10.09;100.00;99196.50;4910914;29;20047;-77
2023/10/29 00:59:44;;;;;;;5.85;3.33;;;;;;;10.09;100.00;99170.19;4876983;29;20516;-77
2023/10/29 01:02:11;;;;;;;5.05;3.45;;;;;;;10.10;100.00;99163.16;4913657;29;20047;-78
2023/10/29 01:04:39;;;;;;;8.68;3.75;;;;;;;10.10;100.00;99161.38;4889356;29;20048;-78
2023/10/29 01:07:07;;;;;;;5.32;3.60;;;;;;;10.10;100.00;99150.84;4930404;29;20047;-77
2023/10/29 01:09:34;;;;;;;7.82;3.28;;;;;;;10.11;100.00;99157.84;4933948;29;20161;-78
2023/10/29 01:12:02;;;;;;;8.32;4.15;;;;;;;10.13;100.00;99135.00;4916840;29;20050;-78
2023/10/29 01:14:30;;;;;;;9.40;3.88;;;;;;;10.14;100.00;99134.09;4855684;29;20063;-77
2023/10/29 01:16:58;;;;;;;3.65;3.30;;;;;;;10.14;100.00;99120.91;4929133;29;20043;-79
2023/10/29 01:19:25;;;;;;;6.13;3.72;;;;;;;10.15;100.00;99106.88;4920000;29;20471;-77
2023/10/29 01:21:52;;;;;;;5.80;4.10;;;;;;;10.17;100.00;99103.31;4928516;29;20043;-78
2023/10/29 01:24:20;;;;;;;3.85;3.45;;;;;;;10.17;100.00;99098.06;4899140;29;20050;-78
2023/10/29 01:26:47;;;;;;;3.78;3.20;;;;;;;10.18;100.00;99091.91;4899586;29;20086;-78
2023/10/29 01:29:16;;;;;;;3.38;3.05;;;;;;;10.18;100.00;99090.13;4933379;29;20062;-77
2023/10/29 01:31:48;;;;;;;4.63;3.70;;;;;;;10.21;100.00;99083.91;4890946;29;20054;-77
2023/10/29 01:34:17;;;;;;;5.82;3.30;;;;;;;10.22;100.00;99088.31;4932878;29;20058;-77
2023/10/29 01:36:44;;;;;;;7.05;3.60;;;;;;;10.23;100.00;99068.97;4903775;29;20323;-77
2023/10/29 01:39:11;;;;;;;3.97;3.67;;;;;;;10.23;100.00;99051.41;4931919;29;20078;-77
2023/10/29 01:41:39;;;;;;;6.15;4.00;;;;;;;10.24;100.00;99052.28;4929693;29;20062;-77
2023/10/29 01:44:07;;;;;;;4.93;3.30;;;;;;;10.26;100.00;99045.19;4916390;29;20043;-77
2023/10/29 01:46:34;;;;;;;5.47;4.07;;;;;;;10.27;100.00;99046.94;4867159;29;20062;-77
2023/10/29 01:49:04;;;;;;;3.70;3.30;;;;;;;10.28;100.00;99044.28;4931669;29;20055;-76
2023/10/29 01:51:31;;;;;;;3.83;3.53;;;;;;;10.32;100.00;99034.53;4905537;29;20059;-76
2023/10/29 01:53:59;;;;;;;5.35;3.95;;;;;;;10.34;100.00;99032.75;4910534;29;20051;-78
2023/10/29 01:56:27;;;;;;;7.47;4.13;;;;;;;10.37;100.00;99016.00;4912577;29;20059;-76
2023/10/29 01:58:54;;;;;;;4.13;3.83;;;;;;;10.38;100.00;99002.81;4929757;29;20046;-77
2023/10/29 02:01:21;;;;;;;5.05;3.53;;;;;;;10.41;100.00;99002.72;4888832;29;20043;-77
2023/10/29 02:03:49;;;;;;;4.57;4.18;;;;;;;10.43;100.00;99006.19;4929683;29;20460;-77
2023/10/29 02:06:20;;;;;;;6.22;4.22;;;;;;;10.45;100.00;98999.13;4889823;29;20058;-77
2023/10/29 02:08:47;;;;;;;4.72;3.40;;;;;;;10.50;100.00;99009.53;4928200;29;20823;-78
2023/10/29 02:11:14;;;;;;;5.53;3.58;;;;;;;10.51;100.00;98998.97;4931897;29;20043;-77
2023/10/29 02:13:43;;;;;;;3.58;3.28;;;;;;;10.54;100.00;98998.00;4946080;29;21013;-78
2023/10/29 02:16:10;;;;;;;5.68;3.47;;;;;;;10.57;100.00;99003.22;4899942;29;20052;-77
2023/10/29 02:18:38;;;;;;;5.65;3.95;;;;;;;10.60;100.00;98997.84;4902793;28;20074;-77
2023/10/29 02:21:07;;;;;;;4.78;4.18;;;;;;;10.64;100.00;98988.09;4932520;29;20059;-78
2023/10/29 02:23:34;;;;;;;4.68;4.28;;;;;;;10.67;100.00;98990.66;4918807;29;20058;-77
2023/10/29 02:26:02;;;;;;;3.63;3.33;;;;;;;10.71;100.00;98985.25;4930055;29;20039;-77
2023/10/29 02:28:29;;;;;;;4.85;4.28;;;;;;;10.77;100.00;98986.00;4929656;29;20413;-77
2023/10/29 02:30:57;;;;;;;5.63;4.13;;;;;;;10.82;100.00;98976.19;4929256;29;20474;-77
2023/10/29 02:33:24;;;;;;;4.72;4.05;;;;;;;10.84;100.00;98967.34;4886089;29;20044;-77
2023/10/29 02:35:52;;;;;;;5.50;3.78;;;;;;;10.86;100.00;98962.88;4914526;29;20493;-77
2023/10/29 02:38:19;;;;;;;4.50;4.10;;;;;;;10.90;100.00;98959.25;4920388;29;20427;-77
2023/10/29 02:40:46;;;;;;;7.63;4.65;;;;;;;10.94;100.00;98962.66;4902760;29;20058;-77
2023/10/29 02:43:16;;;;;;;4.47;4.07;;;;;;;10.96;100.00;98962.63;4930540;29;20047;-77
2023/10/29 02:45:43;;;;;;;4.95;3.75;;;;;;;10.98;100.00;98960.81;4927640;29;20063;-77
2023/10/29 02:48:11;;;;;;;4.47;4.00;;;;;;;11.00;100.00;98953.72;4875681;29;20047;-78
2023/10/29 02:50:39;;;;;;;6.22;3.65;;;;;;;11.00;100.00;98944.06;4911599;29;20055;-77
2023/10/29 02:53:07;;;;;;;9.75;3.72;;;;;;;11.02;100.00;98944.00;4888730;29;20062;-77
2023/10/29 02:55:34;;;;;;;6.05;3.75;;;;;;;11.03;100.00;98933.41;4928659;29;20051;-79
2023/10/29 02:58:02;;;;;;;4.90;3.70;;;;;;;11.05;100.00;98938.66;4898836;29;20051;-77
2023/10/29 03:00:29;;;;;;;5.47;3.83;;;;;;;11.07;100.00;98939.47;4912874;29;20529;-77
2023/10/29 03:02:56;;;;;;;4.18;3.85;;;;;;;11.08;100.00;98934.16;4912178;29;20051;-77
2023/10/29 03:05:24;;;;;;;8.93;4.60;;;;;;;11.10;100.00;98928.84;4869842;29;20493;-76
2023/10/29 03:07:51;;;;;;;4.72;3.38;;;;;;;11.10;100.00;98928.84;4930008;29;20058;-78
2023/10/29 03:10:19;;;;;;;4.72;3.85;;;;;;;11.11;100.00;98917.38;4913403;29;20035;-77
2023/10/29 03:12:46;;;;;;;3.92;3.50;;;;;;;11.11;100.00;98920.00;4929080;29;20044;-77
2023/10/29 03:15:14;;;;;;;4.60;3.20;;;;;;;11.11;100.00;98922.63;4926698;29;20051;-77
2023/10/29 03:17:41;;;;;;;5.47;3.40;;;;;;;11.10;100.00;98913.03;4944203;29;20058;-78
2023/10/29 03:20:09;;;;;;;14.40;3.20;;;;;;;11.10;100.00;98910.38;4868496;29;20052;-77
2023/10/29 03:22:36;;;;;;;5.72;2.67;;;;;;;11.10;100.00;98923.56;4924861;29;20051;-77
2023/10/29 03:25:04;;;;;;;4.85;3.08;;;;;;;11.10;100.00;98918.28;4937337;28;20059;-79
2023/10/29 03:27:32;;;;;;;5.40;2.78;;;;;;;11.11;100.00;98906.81;4920957;29;20501;-77
2023/10/29 03:30:00;;;;;;;3.95;3.10;;;;;;;11.10;100.00;98913.03;4914585;29;20047;-78
2023/10/29 03:32:28;;;;;;;7.40;3.00;;;;;;;11.11;100.00;98909.47;4909159;29;20048;-77
2023/10/29 03:34:55;;;;;;;5.70;2.90;;;;;;;11.11;100.00;98910.34;4891328;29;20054;-78
2023/10/29 03:37:24;;;;;;;3.55;2.60;;;;;;;11.12;100.00;98908.56;4915488;29;20048;-77
2023/10/29 03:39:52;;;;;;;2.95;2.70;;;;;;;11.11;100.00;98888.38;4902808;28;20099;-76
2023/10/29 03:42:19;;;;;;;5.13;2.95;;;;;;;11.11;100.00;98891.00;4930357;29;20043;-77
2023/10/29 03:44:47;;;;;;;4.78;2.65;;;;;;;11.10;100.00;98908.59;4927549;29;20464;-77
2023/10/29 03:47:15;;;;;;;6.57;3.00;;;;;;;11.10;100.00;98891.94;4915990;29;20055;-78
2023/10/29 03:49:42;;;;;;;3.92;2.72;;;;;;;11.11;100.00;98881.34;4872816;29;20055;-78
2023/10/29 03:52:10;;;;;;;4.63;2.85;;;;;;;11.11;100.00;98878.72;4913287;29;20078;-78
2023/10/29 03:54:37;;;;;;;4.03;2.72;;;;;;;11.11;100.00;98873.44;4919389;29;20094;-77
2023/10/29 03:57:04;;;;;;;4.70;2.28;;;;;;;11.11;100.00;98877.81;4905627;29;20051;-77
2023/10/29 03:59:34;;;;;;;3.92;2.33;;;;;;;11.09;100.00;98885.78;4928432;29;20421;-77
2023/10/29 04:02:03;;;;;;;3.20;2.17;;;;;;;11.09;100.00;98884.91;4879139;29;22048;-79
2023/10/29 04:04:32;;;;;;;5.45;2.45;;;;;;;11.09;100.00;98892.81;4889965;28;20497;-78
2023/10/29 04:07:00;;;;;;;2.38;2.03;;;;;;;11.09;100.00;98884.91;4918459;29;20839;-77
2023/10/29 04:09:27;;;;;;;5.55;2.45;;;;;;;11.07;100.00;98882.31;4915292;29;20414;-78
2023/10/29 04:11:55;;;;;;;2.20;2.00;;;;;;;11.07;100.00;98890.22;4920368;29;20063;-78
2023/10/29 04:14:23;;;;;;;2.72;2.08;;;;;;;11.09;100.00;98882.28;4931829;29;20047;-77
2023/10/29 04:16:51;;;;;;;4.18;2.30;;;;;;;11.09;100.00;98872.59;4929186;29;20055;-77
2023/10/29 04:19:18;;;;;;;2.50;1.75;;;;;;;11.12;100.00;98877.78;4948627;29;20433;-78
2023/10/29 04:21:47;;;;;;;3.45;2.15;;;;;;;11.15;100.00;98878.59;4884052;28;20063;-77
2023/10/29 04:24:15;;;;;;;3.25;2.30;;;;;;;11.16;100.00;98881.19;4930682;29;20525;-77
2023/10/29 04:26:43;;;;;;;5.57;2.45;;;;;;;11.17;100.00;98876.78;4916265;28;20067;-77
2023/10/29 04:29:10;;;;;;;3.00;1.80;;;;;;;11.20;100.00;98879.34;4914839;29;20058;-77
2023/10/29 04:31:38;;;;;;;2.67;2.13;;;;;;;11.22;100.00;98883.63;4896154;29;20047;-76
2023/10/29 04:34:05;;;;;;;6.03;2.80;;;;;;;11.23;100.00;98872.19;4923657;29;20054;-77
2023/10/29 04:36:32;;;;;;;6.00;2.03;;;;;;;11.25;100.00;98862.47;4867992;29;20055;-77
2023/10/29 04:39:00;;;;;;;2.90;1.90;;;;;;;11.27;100.00;98858.00;4907613;29;20074;-77
2023/10/29 04:41:27;;;;;;;3.15;1.90;;;;;;;11.29;100.00;98848.25;4914305;28;20058;-80
2023/10/29 04:43:54;;;;;;;2.85;1.70;;;;;;;11.30;100.00;98847.38;4919502;29;20619;-77
2023/10/29 04:46:22;;;;;;;3.75;2.63;;;;;;;11.31;100.00;98846.44;4914526;29;20703;-76
2023/10/29 04:48:49;;;;;;;3.85;1.80;;;;;;;11.34;100.00;98849.88;4913076;29;20303;-77
2023/10/29 04:51:16;;;;;;;2.10;1.90;;;;;;;11.35;100.00;98841.06;4888309;29;20051;-77
2023/10/29 04:53:44;;;;;;;3.47;1.55;;;;;;;11.37;100.00;98840.09;4919990;29;20043;-77
2023/10/29 04:56:11;;;;;;;2.00;1.70;;;;;;;11.40;100.00;98852.31;4931534;29;20062;-79
2023/10/29 04:58:39;;;;;;;7.32;2.08;;;;;;;11.42;100.00;98850.53;4916670;29;20043;-77
2023/10/29 05:01:07;;;;;;;2.55;1.73;;;;;;;11.43;100.00;98868.91;4938922;29;20055;-77
2023/10/29 05:03:34;;;;;;;4.63;2.13;;;;;;;11.46;100.00;98889.94;4912529;29;20054;-77
2023/10/29 05:06:03;;;;;;;15.35;3.85;;;;;;;11.49;100.00;98908.31;4859547;28;20059;-79
2023/10/29 05:08:31;;;;;;;3.60;1.88;;;;;;;11.48;100.00;98893.38;4910420;29;20498;-77
2023/10/29 05:10:58;;;;;;;5.10;1.00;;;;;;;11.39;100.00;98882.25;4927152;28;20051;-76
2023/10/29 05:13:25;;;;;;;4.65;0.88;;;;;;;11.19;100.00;98878.47;4895390;28;20051;-77
2023/10/29 05:15:53;;;;;;;1.42;0.80;;;;;;;11.05;100.00;98867.47;4913860;29;20530;-77
2023/10/29 05:18:20;;;;;;;2.58;0.73;;;;;;;10.93;100.00;98890.66;4927041;29;20040;-77
2023/10/29 05:20:47;;;;;;;1.75;1.10;;;;;;;10.86;100.00;98883.84;4913027;29;20061;-77
2023/10/29 05:23:15;;;;;;;2.05;1.10;;;;;;;10.83;100.00;98872.53;4875908;28;20047;-77
2023/10/29 05:25:42;;;;;;;5.15;0.98;;;;;;;10.82;100.00;98868.19;4908239;29;20458;-77
2023/10/29 05:28:10;;;;;;;2.42;0.73;;;;;;;10.78;100.00;98874.44;4921429;29;20047;-77
2023/10/29 05:30:39;;;;;;;3.63;1.10;;;;;;;10.75;100.00;98883.28;4917903;29;20054;-77
2023/10/29 05:33:06;;;;;;;4.30;1.13;;;;;;;10.72;100.00;98875.50;4944851;29;20039;-78
2023/10/29 05:35:34;;;;;;;2.08;0.52;;;;;;;10.70;100.00;98885.22;4919253;28;20404;-77
2023/10/29 05:38:01;;;;;;;1.20;0.68;;;;;;;10.69;100.00;98886.97;4867319;28;20052;-76
2023/10/29 05:40:29;;;;;;;3.72;0.95;;;;;;;10.69;100.00;98876.41;4895331;28;20055;-77
2023/10/29 05:42:56;;;;;;;2.40;0.90;;;;;;;10.71;100.00;98865.84;4945904;29;20058;-76
2023/10/29 05:45:23;;;;;;;1.67;1.23;;;;;;;10.74;100.00;98863.13;4901631;29;20047;-77
2023/10/29 05:47:50;;;;;;;4.57;1.30;;;;;;;10.78;100.00;98866.53;4913650;29;20055;-77
2023/10/29 05:50:18;;;;;;;3.50;1.20;;;;;;;10.81;100.00;98864.69;4911853;29;20050;-77
2023/10/29 05:52:46;;;;;;;1.23;1.10;;;;;;;10.86;100.00;98873.28;4889162;29;20039;-78
2023/10/29 05:55:13;;;;;;;4.22;0.85;;;;;;;10.89;100.00;98853.91;4921039;29;20047;-78
2023/10/29 05:57:40;;;;;;;0.77;0.77;;;;;;;10.91;100.00;98852.94;4922456;29;20417;-78
2023/10/29 06:00:08;;;;;;;1.35;0.82;;;;;;;10.93;100.00;98860.81;4914754;29;20043;-77
2023/10/29 06:02:38;;;;;;;;;;;;;;;10.92;100.00;98859.06;4930392;29;20062;-77
2023/10/29 06:05:06;;;;;;;2.67;0.70;;;;;;;10.92;100.00;98851.16;4926618;29;20380;-77
2023/10/29 06:07:36;;;;;;;1.00;0.55;;;;;;;10.89;100.00;98846.88;4872178;29;20043;-77
2023/10/29 06:10:04;;;;;;;1.90;0.75;;;;;;;10.88;100.00;98855.66;4905445;29;20047;-77
2023/10/29 06:12:31;;;;;;;2.05;1.00;;;;;;;10.88;100.00;98860.94;4911452;28;20055;-78
2023/10/29 06:14:58;;;;;;;0.63;0.63;;;;;;;10.88;100.00;98863.56;4917278;29;20062;-77
2023/10/29 06:17:26;;;;;;;2.05;1.00;;;;;;;10.89;100.00;98856.56;4903294;29;20842;-77
2023/10/29 06:19:54;;;;;;;4.38;0.85;;;;;;;10.89;100.00;98862.69;4928236;29;20047;-77
2023/10/29 06:22:21;;;;;;;0.70;0.70;;;;;;;10.91;100.00;98874.03;4912458;29;20433;-78
2023/10/29 06:24:49;;;;;;;0.98;0.70;;;;;;;10.90;100.00;98861.75;4859834;29;20043;-78
2023/10/29 06:27:16;;;;;;;3.50;0.65;;;;;;;10.91;100.00;98855.59;4901731;29;20107;-77
2023/10/29 06:29:44;;;;;;;1.42;0.70;;;;;;;10.92;100.00;98878.38;4914102;29;20057;-77
2023/10/29 06:32:11;;;;;;;2.72;1.10;;;;;;;10.93;100.00;98868.72;4916199;29;20039;-77
2023/10/29 06:34:39;;;;;;;1.95;0.68;;;;;;;10.95;100.00;98863.41;4914315;29;20044;-77
2023/10/29 06:37:06;;;;;;;1.67;0.90;;;;;;;10.97;100.00;98867.72;4927136;29;20055;-77
2023/10/29 06:39:33;;;;;;;3.65;0.80;;;;;;;11.00;100.00;98864.13;4889268;29;20055;-78
2023/10/29 06:42:00;;;;;;;3.10;0.70;;;;;;;11.02;100.00;98860.53;4916507;28;20047;-77
2023/10/29 06:44:28;;;;;;;2.35;0.65;;;;;;;11.04;100.00;98855.19;4925760;29;20054;-79
2023/10/29 06:46:56;;;;;;;1.35;1.23;;;;;;;11.08;100.00;98851.59;4919474;29;20058;-78
2023/10/29 06:49:23;;;;;;;3.67;1.02;;;;;;;11.12;100.00;98861.13;4910918;29;20562;-78
2023/10/29 06:51:50;;;;;;;1.30;0.90;;;;;;;11.15;100.00;98879.47;4898342;29;20059;-77
2023/10/29 06:54:18;;;;;;;5.13;1.00;;;;;;;11.20;100.00;98874.06;4869281;28;20062;-78
2023/10/29 06:56:46;;;;;;;3.35;0.90;;;;;;;11.24;100.00;98866.00;4921719;29;20161;-77
2023/10/29 06:59:13;;;;;;;3.28;0.95;;;;;;;11.25;100.00;98862.47;4885650;29;20063;-78
2023/10/29 07:01:40;;;;;;;3.70;1.08;;;;;;;11.24;100.00;98873.91;4900517;29;20043;-77
2023/10/29 07:04:08;;;;;;;1.73;0.85;;;;;;;11.27;100.00;98867.69;4912473;29;20050;-77
2023/10/29 07:06:35;;;;;;;4.03;1.40;;;;;;;11.27;100.00;98889.63;4928249;29;20055;-77
2023/10/29 07:09:03;;;;;;;5.03;1.13;;;;;;;11.28;100.00;98896.63;4888260;28;21009;-76
2023/10/29 07:11:31;;;;;;;2.13;1.00;;;;;;;11.28;100.00;98894.00;4907596;28;20048;-78
2023/10/29 07:13:58;;;;;;;0.60;0.60;;;;;;;11.30;100.00;98901.84;4882040;28;20043;-78
2023/10/29 07:16:26;;;;;;;1.67;0.77;;;;;;;11.31;100.00;98906.22;4905678;29;20055;-75
2023/10/29 07:18:53;;;;;;;2.03;0.70;;;;;;;11.31;100.00;98901.81;4914668;28;20047;-76
2023/10/29 07:21:21;;;;;;;4.10;0.80;;;;;;;11.33;100.00;98904.41;4916022;29;20489;-77
2023/10/29 07:23:48;;;;;;;1.00;0.63;;;;;;;11.34;100.00;98916.66;4928048;28;20401;-78
2023/10/29 07:26:15;;;;;;;4.25;0.68;;;;;;;11.40;100.00;98915.63;4853542;29;20054;-77
2023/10/29 07:28:43;;;;;;;2.92;0.85;;;;;;;11.45;100.00;98926.88;4894878;29;20052;-78
2023/10/29 07:31:10;;;;;;;1.63;0.70;;;;;;;11.47;100.00;98923.31;4895316;29;20066;-77
2023/10/29 07:33:41;;;;;;;2.78;0.63;;;;;;;11.52;100.00;98920.53;4906865;29;20047;-79
2023/10/29 07:36:09;;;;;;;1.58;0.95;;;;;;;11.57;100.00;98934.44;4920469;29;20039;-77
2023/10/29 07:38:36;;;;;;;0.65;0.60;;;;;;;11.60;100.00;98934.31;4940120;28;20054;-77
2023/10/29 07:41:05;;;;;;;2.22;0.80;;;;;;;11.65;100.00;98942.09;4875730;29;20047;-78
2023/10/29 07:43:32;;;;;;;4.25;0.60;;;;;;;11.66;100.00;98942.06;4925067;28;20059;-79
2023/10/29 07:46:04;;;;;;;1.55;0.52;;;;;;;11.69;100.00;98941.94;4947584;29;20035;-77
2023/10/29 07:48:31;;;;;;;0.77;0.60;;;;;;;11.71;100.00;98944.53;4908158;29;20047;-78
2023/10/29 07:50:59;;;;;;;3.33;0.90;;;;;;;11.74;100.00;98948.84;4892629;29;20059;-78
2023/10/29 07:53:30;;;;;;;1.73;0.77;;;;;;;11.76;100.00;98954.94;4929604;29;20066;-78
2023/10/29 07:56:20;;;;;;;3.13;0.90;;;;;;;11.76;100.00;98953.19;4930740;28;20040;-77
2023/10/29 07:58:47;;;;;;;1.38;0.70;;;;;;;11.80;100.00;98949.53;4935106;28;20488;-78
2023/10/29 08:01:16;;;;;;;1.67;0.77;;;;;;;11.84;100.00;98958.22;4904911;29;20050;-77
2023/10/29 08:03:45;;;;;;;2.45;1.17;;;;;;;11.86;100.00;98973.06;4912829;29;20059;-77
2023/10/29 08:06:13;;;;;;;5.05;0.90;;;;;;;11.88;100.00;98976.53;4909106;28;20040;-76
2023/10/29 08:08:40;;;;;;;5.65;1.08;;;;;;;11.89;100.00;98991.50;4932163;29;20074;-76
2023/10/29 08:11:21;;;;;;;1.90;0.60;;;;;;;11.93;100.00;98999.31;4904821;28;20135;-77
2023/10/29 08:13:50;;;;;;;4.15;1.30;;;;;;;11.95;100.00;98993.09;4931671;29;20052;-77
2023/10/29 08:16:18;;;;;;;1.63;0.70;;;;;;;12.00;100.00;99000.84;4901297;29;20043;-76
2023/10/29 08:18:46;;;;;;;1.33;0.70;;;;;;;12.02;100.00;99012.22;4936958;29;20063;-77
2023/10/29 08:21:15;;;;;;;1.95;0.77;;;;;;;12.00;100.00;99022.84;4908166;28;20047;-78
2023/10/29 08:23:42;;;;;;;5.07;0.90;;;;;;;11.99;100.00;99026.38;4897833;29;20062;-77
2023/10/29 08:26:11;;;;;;;3.83;0.90;;;;;;;11.98;100.00;99034.34;4888533;28;20086;-78
2023/10/29 08:28:39;;;;;;;2.00;0.63;;;;;;;12.01;100.00;99043.03;4901495;29;20062;-78
2023/10/29 08:31:08;;;;;;;2.75;0.70;;;;;;;12.07;100.00;99044.63;4920782;28;20039;-78
2023/10/29 08:33:35;;;;;;;4.63;0.90;;;;;;;12.13;100.00;99049.69;4948967;29;20400;-77
2023/10/29 08:36:03;;;;;;;2.33;0.75;;;;;;;12.16;100.00;99054.03;4936719;28;20475;-77
2023/10/29 08:38:31;;;;;;;1.63;0.60;;;;;;;12.19;100.00;99040.72;4926866;29;20059;-77
2023/10/29 08:40:58;;;;;;;3.67;0.70;;;;;;;12.20;100.00;99045.94;4900802;29;20058;-77
2023/10/29 08:43:26;;;;;;;2.63;0.70;;;;;;;12.23;100.00;99059.06;4885848;29;20055;-77
2023/10/29 08:45:57;;;;;;;1.92;0.80;;;;;;;12.28;100.00;99048.34;4913579;29;20040;-79
2023/10/29 08:48:24;;;;;;;7.65;1.20;;;;;;;12.32;100.00;99060.53;4917000;29;20143;-78
2023/10/29 08:50:53;;;;;;;5.32;0.82;;;;;;;12.38;100.00;99070.91;4915680;29;20048;-79
2023/10/29 08:53:20;;;;;;;0.98;0.60;;;;;;;12.46;100.00;99068.88;4905663;29;20039;-77
2023/10/29 08:55:47;;;;;;;2.75;1.45;;;;;;;12.51;100.00;99070.50;4905409;29;20040;-76
2023/10/29 08:58:14;;;;;;;0.80;0.60;;;;;;;12.54;100.00;99065.13;4885446;29;20054;-77
2023/10/29 09:00:42;;;;;;;4.22;0.90;;;;;;;12.55;100.00;99067.72;4910227;29;20449;-79
2023/10/29 09:03:18;;;;;;;8.30;1.48;;;;;;;12.65;100.00;99065.63;4904662;29;20043;-78
2023/10/29 09:05:46;;;;;;;6.47;0.95;;;;;;;12.72;100.00;99064.50;4918545;29;20055;-78
2023/10/29 09:08:14;;;;;;;3.42;1.05;;;;;;;12.77;100.00;99082.84;4886480;29;20055;-77
2023/10/29 09:10:43;;;;;;;2.80;1.02;;;;;;;12.81;100.00;99081.81;4923477;29;20058;-78
2023/10/29 09:13:12;;;;;;;;;;;;;;;12.83;100.00;99077.34;4886060;28;20059;-78
2023/10/29 09:15:41;;;;;;;5.35;0.80;;;;;;;12.81;100.00;99092.38;4950361;29;19922;-78
2023/10/29 09:18:09;;;;;;;1.40;0.88;;;;;;;12.80;100.00;99099.47;4920402;29;20132;-78
2023/10/29 09:20:38;;;;;;;6.05;1.08;;;;;;;12.78;100.00;99116.28;4917207;29;20062;-78
2023/10/29 09:23:06;;;;;;;2.08;0.90;;;;;;;12.85;100.00;99117.78;4891353;28;20047;-80
2023/10/29 09:25:33;;;;;;;5.80;1.08;;;;;;;12.90;100.00;99128.22;4907154;29;20058;-79
2023/10/29 09:28:04;;;;;;;4.70;0.90;;;;;;;12.93;100.00;99136.94;4921920;29;20048;-77
2023/10/29 09:30:32;;;;;;;3.13;0.85;;;;;;;12.97;100.00;99127.97;4890069;29;20058;-80
2023/10/29 09:33:00;;;;;;;3.75;1.00;;;;;;;13.02;100.00;99141.03;4876788;28;20051;-78
2023/10/29 09:35:28;;;;;;;5.25;0.93;;;;;;;12.99;100.00;99146.44;4908979;29;20051;-79
2023/10/29 09:37:55;;;;;;;2.67;0.75;;;;;;;12.97;100.00;99141.19;4922887;28;20043;-78
2023/10/29 09:40:23;;;;;;;3.90;0.80;;;;;;;13.04;100.00;99136.53;4902014;29;20058;-79
2023/10/29 09:42:55;;;;;;;1.85;0.80;;;;;;;13.12;100.00;99152.16;4902783;29;20051;-78
2023/10/29 09:45:25;;;;;;;1.67;0.80;;;;;;;13.22;100.00;99143.00;4885926;29;20070;-78
2023/10/29 09:47:53;;;;;;;4.97;1.10;;;;;;;13.32;100.00;99148.84;4940135;28;20047;-77
2023/10/29 09:50:24;;;;;;;1.73;0.80;;;;;;;13.34;100.00;99139.94;4921728;29;20043;-78
2023/10/29 09:52:53;;;;;;;3.80;0.90;;;;;;;13.36;100.00;99155.75;4944928;29;20050;-77
2023/10/29 09:55:22;;;;;;;3.22;0.80;;;;;;;13.39;100.00;99150.38;4918815;28;20066;-78
2023/10/29 09:57:50;;;;;;;5.75;0.95;;;;;;;13.42;100.00;99171.41;4948960;29;20047;-78
2023/10/29 10:00:18;;;;;;;3.47;0.95;;;;;;;13.42;100.00;99153.78;4945775;29;20046;-79
2023/10/29 10:02:53;;;;;;;4.45;1.00;;;;;;;13.43;100.00;99170.50;4893067;29;20532;-80
2023/10/29 10:05:22;;;;;;;3.75;1.10;;;;;;;13.45;100.00;99181.91;4905766;29;20047;-78
2023/10/29 10:07:54;;;;;;;1.88;0.88;;;;;;;13.45;100.00;99181.91;4913836;29;20062;-78
2023/10/29 10:10:59;;;;;;;3.50;1.25;;;;;;;13.44;100.00;99191.63;4922977;28;20063;-78
2023/10/29 10:13:41;;;;;;;3.05;1.33;;;;;;;13.44;100.00;99169.59;4881633;29;20508;-77
2023/10/29 10:16:11;;;;;;;4.30;1.30;;;;;;;13.38;100.00;99188.31;4928698;28;20047;-79
2023/10/29 10:18:52;;;;;;;4.40;1.02;;;;;;;13.39;100.00;99184.75;4889345;29;20052;-78
2023/10/29 10:21:23;;;;;;;3.53;1.10;;;;;;;13.47;100.00;99180.06;4918240;29;20046;-77
2023/10/29 10:23:52;;;;;;;2.80;1.00;;;;;;;13.54;100.00;99181.56;4918832;29;20066;-78
2023/10/29 10:26:34;;;;;;;4.03;1.17;;;;;;;13.62;100.00;99182.16;4921622;28;20035;-79
2023/10/29 10:29:04;;;;;;;2.90;0.88;;;;;;;13.68;100.00;99193.44;4911731;29;20070;-80
2023/10/29 10:31:33;;;;;;;3.50;0.80;;;;;;;13.68;100.00;99193.44;4908735;29;20055;-79
2023/10/29 10:34:13;;;;;;;4.75;1.40;;;;;;;13.73;100.00;99207.41;4894482;28;20050;-77
2023/10/29 10:36:48;;;;;;;3.58;1.27;;;;;;;13.82;100.00;99193.81;4921782;29;20054;-78
2023/10/29 10:39:22;;;;;;;3.13;1.13;;;;;;;13.85;100.00;99206.94;4929721;29;20051;-77
2023/10/29 10:41:50;;;;;;;3.28;0.82;;;;;;;13.81;100.00;99207.97;4927515;28;20052;-79
2023/10/29 10:44:19;;;;;;;4.55;0.73;;;;;;;13.76;100.00;99192.25;4884489;29;20815;-78
2023/10/29 10:46:54;;;;;;;2.28;0.82;;;;;;;13.75;100.00;99190.53;4939769;28;20054;-77
2023/10/29 10:49:22;;;;;;;3.40;1.38;;;;;;;13.73;100.00;99197.66;4891749;29;20421;-77
2023/10/29 10:51:55;;;;;;;3.30;0.88;;;;;;;13.68;100.00;99191.66;4937441;28;20066;-77
2023/10/29 10:54:23;;;;;;;3.28;0.90;;;;;;;13.65;100.00;99190.00;4920649;29;20058;-80
2023/10/29 10:56:52;;;;;;;3.92;0.82;;;;;;;13.62;100.00;99194.53;4941526;28;20039;-77
2023/10/29 10:59:21;;;;;;;5.40;1.15;;;;;;;13.59;100.00;99199.91;4946453;28;20062;-77
2023/10/29 11:01:50;;;;;;;3.47;0.85;;;;;;;13.57;100.00;99207.94;4915386;28;20056;-77
2023/10/29 11:04:18;;;;;;;3.38;0.77;;;;;;;13.56;100.00;99210.63;4868426;29;20093;-78
2023/10/29 11:06:47;;;;;;;3.88;1.00;;;;;;;13.60;100.00;99199.88;4933731;28;21151;-78
2023/10/29 11:09:14;;;;;;;4.28;1.17;;;;;;;13.63;100.00;99205.06;4888374;29;20058;-78
2023/10/29 11:11:49;;;;;;;3.97;0.75;;;;;;;13.69;100.00;99205.78;4917335;29;20047;-77
2023/10/29 11:14:17;;;;;;;2.15;1.00;;;;;;;13.76;100.00;99208.16;4908590;28;20059;-78
2023/10/29 11:16:53;;;;;;;3.20;1.00;;;;;;;13.80;100.00;99214.19;4928053;29;20058;-77
2023/10/29 11:19:41;;;;;;;4.82;0.90;;;;;;;13.82;100.00;99230.91;4918374;29;20051;-77
2023/10/29 11:22:22;;;;;;;7.57;0.90;;;;;;;13.90;100.00;99235.91;4912607;29;20050;-77
2023/10/29 11:25:05;;;;;;;4.85;1.30;;;;;;;13.94;100.00;99233.06;4920085;29;20058;-77
2023/10/29 11:27:33;;;;;;;1.58;0.80;;;;;;;13.96;100.00;99233.88;4919600;29;20060;-78
2023/10/29 11:30:14;;;;;;;4.10;1.15;;;;;;;13.94;100.00;99227.78;4925017;29;20408;-77
2023/10/29 11:32:43;;;;;;;5.00;1.02;;;;;;;13.91;100.00;99233.19;4912233;29;20059;-78